sensor_id;sensor_type;location;lat;lon;timestamp;pressure;altitude;pressure_sealevel;temperature;humidity
47761;BME280;33524;55.434;38.520;2023-05-02T00:02:22;100764.97;;;1.61;95.39
47761;BME280;33524;55.434;38.520;2023-05-02T00:04:51;100763.97;;;1.65;94.23
47761;BME280;33524;55.434;38.520;2023-05-02T00:07:19;100774.44;;;1.32;96.52
47761;BME280;33524;55.434;38.520;2023-05-02T00:09:47;100764.25;;;1.26;96.79
47761;BME280;33524;55.434;38.520;2023-05-02T00:12:16;100782.41;;;1.26;97.49
47761;BME280;33524;55.434;38.520;2023-05-02T00:14:44;100785.97;;;1.22;97.49
47761;BME280;33524;55.434;38.520;2023-05-02T00:17:19;100786.78;;;1.24;97.32
47761;BME280;33524;55.434;38.520;2023-05-02T00:19:47;100795.63;;;1.15;97.24
47761;BME280;33524;55.434;38.520;2023-05-02T00:22:15;100787.00;;;1.15;96.14
47761;BME280;33524;55.434;38.520;2023-05-02T00:24:43;100771.25;;;1.23;95.24
47761;BME280;33524;55.434;38.520;2023-05-02T00:27:12;100773.53;;;1.33;93.42
47761;BME280;33524;55.434;38.520;2023-05-02T00:29:40;100802.22;;;1.27;94.53
47761;BME280;33524;55.434;38.520;2023-05-02T00:32:08;100815.28;;;1.24;94.96
47761;BME280;33524;55.434;38.520;2023-05-02T00:34:37;100812.06;;;1.14;95.20
47761;BME280;33524;55.434;38.520;2023-05-02T00:37:06;100815.38;;;1.19;94.88
47761;BME280;33524;55.434;38.520;2023-05-02T00:39:34;100817.56;;;1.02;95.79
47761;BME280;33524;55.434;38.520;2023-05-02T00:42:02;100813.34;;;0.99;96.45
47761;BME280;33524;55.434;38.520;2023-05-02T00:44:31;100824.56;;;0.98;96.00
47761;BME280;33524;55.434;38.520;2023-05-02T00:47:00;100824.66;;;0.95;96.56
47761;BME280;33524;55.434;38.520;2023-05-02T00:49:29;100832.75;;;0.83;97.01
47761;BME280;33524;55.434;38.520;2023-05-02T00:51:57;100838.97;;;0.74;97.28
47761;BME280;33524;55.434;38.520;2023-05-02T00:54:25;100836.44;;;0.73;97.72
47761;BME280;33524;55.434;38.520;2023-05-02T00:56:54;100834.53;;;0.81;97.39
47761;BME280;33524;55.434;38.520;2023-05-02T00:59:22;100843.44;;;0.69;97.34
47761;BME280;33524;55.434;38.520;2023-05-02T01:02:08;100841.91;;;0.62;97.37
47761;BME280;33524;55.434;38.520;2023-05-02T01:08:11;100847.47;;;0.81;96.37
47761;BME280;33524;55.434;38.520;2023-05-02T01:11:04;100846.34;;;0.91;94.97
47761;BME280;33524;55.434;38.520;2023-05-02T01:13:36;100852.56;;;0.84;94.38
47761;BME280;33524;55.434;38.520;2023-05-02T01:16:06;100861.09;;;0.88;94.24
47761;BME280;33524;55.434;38.520;2023-05-02T01:18:39;100860.25;;;0.87;94.44
47761;BME280;33524;55.434;38.520;2023-05-02T01:21:09;100873.22;;;0.87;94.39
47761;BME280;33524;55.434;38.520;2023-05-02T01:26:49;100865.59;;;0.81;94.12
47761;BME280;33524;55.434;38.520;2023-05-02T01:29:19;100874.44;;;1.07;92.27
47761;BME280;33524;55.434;38.520;2023-05-02T01:31:50;100874.37;;;1.10;91.37
47761;BME280;33524;55.434;38.520;2023-05-02T01:34:20;100880.56;;;1.04;91.74
47761;BME280;33524;55.434;38.520;2023-05-02T01:36:49;100882.09;;;1.11;91.27
47761;BME280;33524;55.434;38.520;2023-05-02T01:39:20;100875.56;;;0.60;92.88
47761;BME280;33524;55.434;38.520;2023-05-02T01:41:51;100875.56;;;0.60;94.20
47761;BME280;33524;55.434;38.520;2023-05-02T01:44:21;100885.78;;;0.67;93.63
47761;BME280;33524;55.434;38.520;2023-05-02T01:46:52;100893.72;;;0.59;94.55
47761;BME280;33524;55.434;38.520;2023-05-02T01:49:23;100906.06;;;0.48;95.20
47761;BME280;33524;55.434;38.520;2023-05-02T01:51:52;100909.19;;;0.62;94.48
47761;BME280;33524;55.434;38.520;2023-05-02T01:54:22;100904.31;;;0.86;91.96
47761;BME280;33524;55.434;38.520;2023-05-02T01:56:51;100909.00;;;0.70;91.98
47761;BME280;33524;55.434;38.520;2023-05-02T01:59:21;100911.56;;;0.32;94.77
47761;BME280;33524;55.434;38.520;2023-05-02T02:01:51;100918.72;;;0.21;95.99
47761;BME280;33524;55.434;38.520;2023-05-02T02:04:20;100897.63;;;-0.01;97.18
47761;BME280;33524;55.434;38.520;2023-05-02T02:06:54;100924.78;;;0.18;96.99
47761;BME280;33524;55.434;38.520;2023-05-02T02:09:25;100923.22;;;0.11;96.69
47761;BME280;33524;55.434;38.520;2023-05-02T02:12:10;100928.56;;;0.44;94.53
47761;BME280;33524;55.434;38.520;2023-05-02T02:14:42;100937.97;;;0.48;93.39
47761;BME280;33524;55.434;38.520;2023-05-02T02:17:35;100929.16;;;0.55;92.21
47761;BME280;33524;55.434;38.520;2023-05-02T02:20:06;100936.75;;;0.65;91.11
47761;BME280;33524;55.434;38.520;2023-05-02T02:22:38;100941.97;;;0.62;91.54
47761;BME280;33524;55.434;38.520;2023-05-02T02:25:09;100940.44;;;0.53;92.53
47761;BME280;33524;55.434;38.520;2023-05-02T02:27:39;100943.25;;;0.44;93.21
47761;BME280;33524;55.434;38.520;2023-05-02T02:30:09;100942.94;;;0.57;92.41
47761;BME280;33524;55.434;38.520;2023-05-02T02:32:37;100947.81;;;0.71;91.45
47761;BME280;33524;55.434;38.520;2023-05-02T02:35:05;100954.28;;;0.52;94.40
47761;BME280;33524;55.434;38.520;2023-05-02T02:37:40;100953.28;;;0.57;93.58
47761;BME280;33524;55.434;38.520;2023-05-02T02:43:25;100964.81;;;0.83;91.22
47761;BME280;33524;55.434;38.520;2023-05-02T02:51:52;100966.88;;;1.05;89.91
47761;BME280;33524;55.434;38.520;2023-05-02T02:54:45;100974.06;;;1.29;87.40
47761;BME280;33524;55.434;38.520;2023-05-02T02:58:06;100975.34;;;1.11;90.31
47761;BME280;33524;55.434;38.520;2023-05-02T03:00:24;100976.81;;;1.21;89.49
47761;BME280;33524;55.434;38.520;2023-05-02T03:02:54;100984.00;;;1.12;92.03
47761;BME280;33524;55.434;38.520;2023-05-02T03:05:24;100986.16;;;1.30;90.35
47761;BME280;33524;55.434;38.520;2023-05-02T03:07:52;100991.22;;;1.33;90.34
47761;BME280;33524;55.434;38.520;2023-05-02T03:10:21;100974.06;;;1.29;90.65
47761;BME280;33524;55.434;38.520;2023-05-02T03:13:03;100991.09;;;1.39;92.43
47761;BME280;33524;55.434;38.520;2023-05-02T03:18:21;101001.22;;;1.81;87.40
47761;BME280;33524;55.434;38.520;2023-05-02T03:20:49;101003.34;;;1.67;91.38
47761;BME280;33524;55.434;38.520;2023-05-02T03:23:18;101005.88;;;1.70;91.73
47761;BME280;33524;55.434;38.520;2023-05-02T03:25:47;101007.66;;;2.01;87.37
47761;BME280;33524;55.434;38.520;2023-05-02T03:28:17;101016.09;;;2.08;87.31
47761;BME280;33524;55.434;38.520;2023-05-02T03:30:46;101014.94;;;2.19;87.58
47761;BME280;33524;55.434;38.520;2023-05-02T03:33:15;101019.84;;;2.29;87.72
47761;BME280;33524;55.434;38.520;2023-05-02T03:35:43;101029.34;;;2.30;87.90
47761;BME280;33524;55.434;38.520;2023-05-02T03:38:12;101032.12;;;2.53;86.20
47761;BME280;33524;55.434;38.520;2023-05-02T03:40:41;101028.97;;;2.73;83.31
47761;BME280;33524;55.434;38.520;2023-05-02T03:43:10;101037.66;;;2.71;85.12
47761;BME280;33524;55.434;38.520;2023-05-02T03:45:38;101033.69;;;2.89;84.54
47761;BME280;33524;55.434;38.520;2023-05-02T03:48:07;101040.16;;;3.03;83.61
47761;BME280;33524;55.434;38.520;2023-05-02T03:50:36;101035.31;;;2.91;84.71
47761;BME280;33524;55.434;38.520;2023-05-02T03:53:08;101038.38;;;3.32;81.90
47761;BME280;33524;55.434;38.520;2023-05-02T03:55:43;101036.03;;;3.51;80.89
47761;BME280;33524;55.434;38.520;2023-05-02T03:58:12;101045.53;;;3.26;82.75
47761;BME280;33524;55.434;38.520;2023-05-02T04:00:41;101038.34;;;3.60;80.53
47761;BME280;33524;55.434;38.520;2023-05-02T04:03:10;101045.09;;;3.66;79.87
47761;BME280;33524;55.434;38.520;2023-05-02T04:05:39;101052.38;;;3.81;79.56
47761;BME280;33524;55.434;38.520;2023-05-02T04:08:08;101058.38;;;4.09;78.56
47761;BME280;33524;55.434;38.520;2023-05-02T04:10:37;101061.63;;;4.64;77.32
47761;BME280;33524;55.434;38.520;2023-05-02T04:13:07;101056.50;;;4.37;77.42
47761;BME280;33524;55.434;38.520;2023-05-02T04:15:36;101066.69;;;4.67;78.05
47761;BME280;33524;55.434;38.520;2023-05-02T04:18:05;101068.03;;;5.01;76.58
47761;BME280;33524;55.434;38.520;2023-05-02T04:20:34;101067.72;;;4.87;73.53
47761;BME280;33524;55.434;38.520;2023-05-02T04:23:02;101064.47;;;5.03;75.51
47761;BME280;33524;55.434;38.520;2023-05-02T04:25:31;101069.59;;;4.59;73.88
47761;BME280;33524;55.434;38.520;2023-05-02T04:28:00;101074.00;;;5.04;73.30
47761;BME280;33524;55.434;38.520;2023-05-02T04:30:41;101074.37;;;5.60;74.55
47761;BME280;33524;55.434;38.520;2023-05-02T04:33:10;101075.97;;;5.64;72.12
47761;BME280;33524;55.434;38.520;2023-05-02T04:35:40;101075.16;;;6.64;73.75
47761;BME280;33524;55.434;38.520;2023-05-02T04:38:09;101066.69;;;7.16;71.15
47761;BME280;33524;55.434;38.520;2023-05-02T04:40:50;101071.91;;;7.16;72.16
47761;BME280;33524;55.434;38.520;2023-05-02T04:43:22;101064.50;;;6.50;68.74
47761;BME280;33524;55.434;38.520;2023-05-02T04:45:52;101068.22;;;6.63;70.98
47761;BME280;33524;55.434;38.520;2023-05-02T04:48:21;101075.13;;;6.26;72.29
47761;BME280;33524;55.434;38.520;2023-05-02T04:50:50;101073.22;;;6.89;72.46
47761;BME280;33524;55.434;38.520;2023-05-02T04:53:21;101076.53;;;8.00;72.65
47761;BME280;33524;55.434;38.520;2023-05-02T04:55:50;101074.13;;;8.47;69.45
47761;BME280;33524;55.434;38.520;2023-05-02T04:58:19;101081.59;;;7.14;64.36
47761;BME280;33524;55.434;38.520;2023-05-02T05:00:47;101076.16;;;8.07;62.55
47761;BME280;33524;55.434;38.520;2023-05-02T05:03:16;101069.00;;;7.76;66.42
47761;BME280;33524;55.434;38.520;2023-05-02T05:05:44;101089.59;;;6.92;64.50
47761;BME280;33524;55.434;38.520;2023-05-02T05:08:13;101072.59;;;8.43;70.03
47761;BME280;33524;55.434;38.520;2023-05-02T05:10:54;101080.87;;;8.85;73.45
47761;BME280;33524;55.434;38.520;2023-05-02T05:13:23;101078.97;;;8.38;69.44
47761;BME280;33524;55.434;38.520;2023-05-02T05:15:52;101078.94;;;7.87;61.62
47761;BME280;33524;55.434;38.520;2023-05-02T05:18:20;101077.50;;;7.81;61.90
47761;BME280;33524;55.434;38.520;2023-05-02T05:20:49;101079.12;;;8.35;65.37
47761;BME280;33524;55.434;38.520;2023-05-02T05:23:17;101071.37;;;9.76;70.93
47761;BME280;33524;55.434;38.520;2023-05-02T05:25:45;101072.44;;;10.76;66.50
47761;BME280;33524;55.434;38.520;2023-05-02T05:28:14;101074.53;;;10.42;68.04
47761;BME280;33524;55.434;38.520;2023-05-02T05:30:44;101072.31;;;11.33;64.27
47761;BME280;33524;55.434;38.520;2023-05-02T05:33:12;101077.97;;;10.71;57.28
47761;BME280;33524;55.434;38.520;2023-05-02T05:35:42;101066.63;;;11.12;57.96
47761;BME280;33524;55.434;38.520;2023-05-02T05:38:10;101076.28;;;11.93;63.08
47761;BME280;33524;55.434;38.520;2023-05-02T05:40:39;101082.84;;;9.89;53.16
47761;BME280;33524;55.434;38.520;2023-05-02T05:43:08;101071.34;;;11.07;60.58
47761;BME280;33524;55.434;38.520;2023-05-02T05:45:38;101073.84;;;12.03;68.49
47761;BME280;33524;55.434;38.520;2023-05-02T05:48:06;101072.66;;;13.45;63.67
47761;BME280;33524;55.434;38.520;2023-05-02T05:50:36;101072.22;;;13.86;63.66
47761;BME280;33524;55.434;38.520;2023-05-02T05:53:05;101084.63;;;11.18;54.84
47761;BME280;33524;55.434;38.520;2023-05-02T05:55:33;101079.84;;;9.19;54.11
47761;BME280;33524;55.434;38.520;2023-05-02T05:58:04;101080.47;;;12.72;54.54
47761;BME280;33524;55.434;38.520;2023-05-02T06:00:34;101071.44;;;13.38;62.24
47761;BME280;33524;55.434;38.520;2023-05-02T06:03:04;101072.41;;;11.71;62.98
47761;BME280;33524;55.434;38.520;2023-05-02T06:05:36;101079.16;;;13.28;60.44
47761;BME280;33524;55.434;38.520;2023-05-02T06:08:05;101065.44;;;12.49;57.42
47761;BME280;33524;55.434;38.520;2023-05-02T06:10:33;101081.47;;;12.20;54.37
47761;BME280;33524;55.434;38.520;2023-05-02T06:13:01;101072.88;;;15.14;60.33
47761;BME280;33524;55.434;38.520;2023-05-02T06:15:32;101079.59;;;15.73;48.44
47761;BME280;33524;55.434;38.520;2023-05-02T06:18:02;101082.72;;;12.15;46.31
47761;BME280;33524;55.434;38.520;2023-05-02T06:20:31;101080.22;;;11.86;65.00
47761;BME280;33524;55.434;38.520;2023-05-02T06:22:59;101081.41;;;14.05;65.51
47761;BME280;33524;55.434;38.520;2023-05-02T06:25:27;101070.72;;;17.07;55.74
47761;BME280;33524;55.434;38.520;2023-05-02T06:27:56;101075.09;;;14.98;58.54
47761;BME280;33524;55.434;38.520;2023-05-02T06:30:23;101082.72;;;12.66;43.51
47761;BME280;33524;55.434;38.520;2023-05-02T06:32:52;101085.75;;;10.58;46.32
47761;BME280;33524;55.434;38.520;2023-05-02T06:35:20;101091.13;;;11.27;59.14
47761;BME280;33524;55.434;38.520;2023-05-02T06:37:48;101077.16;;;13.91;67.41
47761;BME280;33524;55.434;38.520;2023-05-02T06:40:16;101092.44;;;13.87;51.63
47761;BME280;33524;55.434;38.520;2023-05-02T06:42:46;101088.63;;;12.69;45.07
47761;BME280;33524;55.434;38.520;2023-05-02T06:45:26;101096.50;;;10.10;44.69
47761;BME280;33524;55.434;38.520;2023-05-02T06:47:55;101085.69;;;12.61;58.09
47761;BME280;33524;55.434;38.520;2023-05-02T06:50:23;101076.38;;;18.11;53.05
47761;BME280;33524;55.434;38.520;2023-05-02T06:52:51;101085.97;;;18.31;49.58
47761;BME280;33524;55.434;38.520;2023-05-02T06:55:19;101084.34;;;17.52;42.99
47761;BME280;33524;55.434;38.520;2023-05-02T06:57:48;101088.44;;;11.68;55.21
47761;BME280;33524;55.434;38.520;2023-05-02T07:00:17;101097.69;;;10.93;40.85
47761;BME280;33524;55.434;38.520;2023-05-02T07:02:48;101109.50;;;10.28;42.23
47761;BME280;33524;55.434;38.520;2023-05-02T07:05:16;101089.34;;;15.29;60.37
47761;BME280;33524;55.434;38.520;2023-05-02T07:07:44;101088.63;;;12.57;38.41
47761;BME280;33524;55.434;38.520;2023-05-02T07:10:13;101088.28;;;14.19;62.88
47761;BME280;33524;55.434;38.520;2023-05-02T07:12:41;101080.97;;;17.80;52.18
47761;BME280;33524;55.434;38.520;2023-05-02T07:15:09;101079.53;;;14.29;34.50
47761;BME280;33524;55.434;38.520;2023-05-02T07:17:39;101080.97;;;13.27;35.98
47761;BME280;33524;55.434;38.520;2023-05-02T07:20:09;101093.56;;;11.30;40.50
47761;BME280;33524;55.434;38.520;2023-05-02T07:22:37;101096.47;;;10.98;48.85
47761;BME280;33524;55.434;38.520;2023-05-02T07:25:05;101085.63;;;16.48;55.71
47761;BME280;33524;55.434;38.520;2023-05-02T07:27:34;101098.31;;;12.05;36.37
47761;BME280;33524;55.434;38.520;2023-05-02T07:30:03;101087.97;;;14.91;51.20
47761;BME280;33524;55.434;38.520;2023-05-02T07:32:31;101095.06;;;12.01;36.65
47761;BME280;33524;55.434;38.520;2023-05-02T07:34:59;101089.84;;;14.21;52.83
47761;BME280;33524;55.434;38.520;2023-05-02T07:37:33;101104.44;;;12.82;58.71
47761;BME280;33524;55.434;38.520;2023-05-02T07:40:06;101092.28;;;16.73;48.48
47761;BME280;33524;55.434;38.520;2023-05-02T07:42:34;101093.91;;;18.88;50.13
47761;BME280;33524;55.434;38.520;2023-05-02T07:45:03;101079.88;;;18.49;47.83
47761;BME280;33524;55.434;38.520;2023-05-02T07:47:33;101088.81;;;15.79;39.87
47761;BME280;33524;55.434;38.520;2023-05-02T07:50:02;101092.78;;;16.57;41.12
47761;BME280;33524;55.434;38.520;2023-05-02T07:52:32;101099.25;;;14.48;38.38
47761;BME280;33524;55.434;38.520;2023-05-02T07:55:00;101092.13;;;14.15;31.62
47761;BME280;33524;55.434;38.520;2023-05-02T07:57:42;101098.25;;;12.45;36.06
47761;BME280;33524;55.434;38.520;2023-05-02T08:00:10;101096.16;;;14.43;36.17
47761;BME280;33524;55.434;38.520;2023-05-02T08:02:41;101098.03;;;12.74;42.66
47761;BME280;33524;55.434;38.520;2023-05-02T08:05:10;101093.94;;;17.05;54.58
47761;BME280;33524;55.434;38.520;2023-05-02T08:07:38;101091.56;;;15.01;47.07
47761;BME280;33524;55.434;38.520;2023-05-02T08:10:08;101085.16;;;12.56;32.50
47761;BME280;33524;55.434;38.520;2023-05-02T08:12:38;101102.72;;;11.51;33.67
47761;BME280;33524;55.434;38.520;2023-05-02T08:15:07;101104.22;;;13.22;33.16
47761;BME280;33524;55.434;38.520;2023-05-02T08:17:36;101087.75;;;18.41;42.98
47761;BME280;33524;55.434;38.520;2023-05-02T08:20:05;101090.34;;;14.49;33.46
47761;BME280;33524;55.434;38.520;2023-05-02T08:22:33;101086.62;;;16.57;56.69
47761;BME280;33524;55.434;38.520;2023-05-02T08:25:01;101090.06;;;15.31;55.10
47761;BME280;33524;55.434;38.520;2023-05-02T08:27:30;101094.47;;;16.06;42.47
47761;BME280;33524;55.434;38.520;2023-05-02T08:29:58;101091.47;;;17.42;48.74
47761;BME280;33524;55.434;38.520;2023-05-02T08:32:31;101076.59;;;20.79;33.78
47761;BME280;33524;55.434;38.520;2023-05-02T08:35:00;101072.44;;;20.15;36.55
47761;BME280;33524;55.434;38.520;2023-05-02T08:37:32;101074.97;;;22.66;36.94
47761;BME280;33524;55.434;38.520;2023-05-02T08:40:00;101069.44;;;24.29;37.91
47761;BME280;33524;55.434;38.520;2023-05-02T08:42:33;101052.31;;;25.33;36.96
47761;BME280;33524;55.434;38.520;2023-05-02T08:45:02;101065.41;;;23.95;27.92
47761;BME280;33524;55.434;38.520;2023-05-02T08:47:35;101074.91;;;18.26;38.93
47761;BME280;33524;55.434;38.520;2023-05-02T08:50:05;101084.13;;;14.84;29.08
47761;BME280;33524;55.434;38.520;2023-05-02T08:52:34;101072.44;;;22.65;43.08
47761;BME280;33524;55.434;38.520;2023-05-02T08:55:05;101059.47;;;24.89;37.35
47761;BME280;33524;55.434;38.520;2023-05-02T08:57:34;101065.22;;;21.85;31.18
47761;BME280;33524;55.434;38.520;2023-05-02T09:00:02;101077.81;;;15.83;53.85
47761;BME280;33524;55.434;38.520;2023-05-02T09:05:11;101072.06;;;15.13;53.82
47761;BME280;33524;55.434;38.520;2023-05-02T09:07:47;101066.88;;;17.60;52.83
47761;BME280;33524;55.434;38.520;2023-05-02T09:10:16;101057.37;;;20.41;34.72
47761;BME280;33524;55.434;38.520;2023-05-02T09:12:46;101066.69;;;21.13;46.47
47761;BME280;33524;55.434;38.520;2023-05-02T09:15:15;101053.19;;;25.40;36.36
47761;BME280;33524;55.434;38.520;2023-05-02T09:17:48;101061.09;;;16.65;25.98
47761;BME280;33524;55.434;38.520;2023-05-02T09:20:16;101055.06;;;19.04;35.80
47761;BME280;33524;55.434;38.520;2023-05-02T09:22:51;101056.22;;;21.86;30.14
47761;BME280;33524;55.434;38.520;2023-05-02T09:25:20;101062.19;;;19.49;30.19
47761;BME280;33524;55.434;38.520;2023-05-02T09:27:54;101051.97;;;19.80;49.49
47761;BME280;33524;55.434;38.520;2023-05-02T09:30:24;101048.50;;;20.74;36.12
47761;BME280;33524;55.434;38.520;2023-05-02T09:32:52;101056.22;;;17.89;33.73
47761;BME280;33524;55.434;38.520;2023-05-02T09:35:24;101044.19;;;23.40;30.62
47761;BME280;33524;55.434;38.520;2023-05-02T09:37:54;101043.72;;;20.52;28.68
47761;BME280;33524;55.434;38.520;2023-05-02T09:40:22;101042.62;;;22.04;45.79
47761;BME280;33524;55.434;38.520;2023-05-02T09:42:51;101037.16;;;24.59;39.11
47761;BME280;33524;55.434;38.520;2023-05-02T09:45:22;101036.75;;;17.10;26.45
47761;BME280;33524;55.434;38.520;2023-05-02T09:47:52;101041.09;;;20.60;48.05
47761;BME280;33524;55.434;38.520;2023-05-02T09:50:36;101045.22;;;15.07;32.63
47761;BME280;33524;55.434;38.520;2023-05-02T09:53:07;101037.88;;;20.91;48.99
47761;BME280;33524;55.434;38.520;2023-05-02T09:55:36;101016.87;;;24.12;39.43
47761;BME280;33524;55.434;38.520;2023-05-02T09:58:04;101015.19;;;24.70;37.19
47761;BME280;33524;55.434;38.520;2023-05-02T10:00:43;101012.97;;;23.85;28.86
47761;BME280;33524;55.434;38.520;2023-05-02T10:03:15;101033.69;;;19.13;26.56
47761;BME280;33524;55.434;38.520;2023-05-02T10:05:45;101027.69;;;17.32;31.87
47761;BME280;33524;55.434;38.520;2023-05-02T10:08:15;101039.25;;;16.83;36.95
47761;BME280;33524;55.434;38.520;2023-05-02T10:10:53;101031.84;;;18.68;52.45
47761;BME280;33524;55.434;38.520;2023-05-02T10:13:24;101037.41;;;14.94;29.50
47761;BME280;33524;55.434;38.520;2023-05-02T10:15:59;101027.31;;;15.85;61.14
47761;BME280;33524;55.434;38.520;2023-05-02T10:18:37;101035.72;;;14.93;33.29
47761;BME280;33524;55.434;38.520;2023-05-02T10:21:09;101024.31;;;17.21;56.14
47761;BME280;33524;55.434;38.520;2023-05-02T10:23:42;101012.84;;;17.10;37.98
47761;BME280;33524;55.434;38.520;2023-05-02T10:26:14;101002.13;;;20.15;41.17
47761;BME280;33524;55.434;38.520;2023-05-02T10:28:43;101004.97;;;20.99;42.35
47761;BME280;33524;55.434;38.520;2023-05-02T10:31:13;101006.34;;;22.41;32.03
47761;BME280;33524;55.434;38.520;2023-05-02T10:33:43;100998.41;;;22.64;30.73
47761;BME280;33524;55.434;38.520;2023-05-02T10:36:14;100998.34;;;21.52;37.82
47761;BME280;33524;55.434;38.520;2023-05-02T10:38:42;100999.31;;;22.48;24.66
47761;BME280;33524;55.434;38.520;2023-05-02T10:41:20;101000.97;;;21.85;23.78
47761;BME280;33524;55.434;38.520;2023-05-02T10:43:50;101012.06;;;18.71;26.54
47761;BME280;33524;55.434;38.520;2023-05-02T10:46:36;101000.94;;;19.39;26.62
47761;BME280;33524;55.434;38.520;2023-05-02T10:49:07;101003.06;;;20.32;26.62
47761;BME280;33524;55.434;38.520;2023-05-02T10:51:37;101001.38;;;19.52;31.38
47761;BME280;33524;55.434;38.520;2023-05-02T10:59:33;100996.75;;;17.12;28.83
47761;BME280;33524;55.434;38.520;2023-05-02T11:02:01;101006.78;;;18.33;38.55
47761;BME280;33524;55.434;38.520;2023-05-02T11:07:20;100968.72;;;27.34;26.67
47761;BME280;33524;55.434;38.520;2023-05-02T11:09:49;100989.78;;;18.62;34.97
47761;BME280;33524;55.434;38.520;2023-05-02T11:12:48;100996.06;;;16.19;27.89
47761;BME280;33524;55.434;38.520;2023-05-02T11:18:11;100993.59;;;16.78;45.49
47761;BME280;33524;55.434;38.520;2023-05-02T11:20:44;100993.81;;;13.63;31.13
47761;BME280;33524;55.434;38.520;2023-05-02T11:25:57;100965.91;;;25.56;34.95
47761;BME280;33524;55.434;38.520;2023-05-02T11:31:09;100965.00;;;22.74;41.59
47761;BME280;33524;55.434;38.520;2023-05-02T11:33:58;100960.84;;;21.68;27.19
47761;BME280;33524;55.434;38.520;2023-05-02T11:36:31;100960.00;;;21.02;26.47
47761;BME280;33524;55.434;38.520;2023-05-02T11:39:03;100966.50;;;17.71;32.30
47761;BME280;33524;55.434;38.520;2023-05-02T11:41:40;100960.53;;;17.21;28.50
47761;BME280;33524;55.434;38.520;2023-05-02T11:44:08;100956.00;;;17.50;28.51
47761;BME280;33524;55.434;38.520;2023-05-02T11:46:40;100951.41;;;17.23;29.04
47761;BME280;33524;55.434;38.520;2023-05-02T11:49:08;100961.84;;;17.83;25.74
47761;BME280;33524;55.434;38.520;2023-05-02T11:51:41;100946.09;;;17.23;27.76
47761;BME280;33524;55.434;38.520;2023-05-02T11:54:18;100956.38;;;17.75;26.82
47761;BME280;33524;55.434;38.520;2023-05-02T11:56:47;100948.41;;;17.85;28.48
47761;BME280;33524;55.434;38.520;2023-05-02T11:59:15;100945.19;;;18.46;27.91
47761;BME280;33524;55.434;38.520;2023-05-02T12:01:47;100956.03;;;18.35;26.43
47761;BME280;33524;55.434;38.520;2023-05-02T12:04:16;100955.72;;;18.10;27.08
47761;BME280;33524;55.434;38.520;2023-05-02T12:06:56;100952.13;;;18.57;27.88
47761;BME280;33524;55.434;38.520;2023-05-02T12:09:24;100945.34;;;19.08;26.80
47761;BME280;33524;55.434;38.520;2023-05-02T12:11:53;100934.06;;;19.59;28.11
47761;BME280;33524;55.434;38.520;2023-05-02T12:14:28;100933.25;;;19.92;25.96
47761;BME280;33524;55.434;38.520;2023-05-02T12:16:57;100938.41;;;20.20;29.17
47761;BME280;33524;55.434;38.520;2023-05-02T12:19:26;100929.28;;;20.98;23.73
47761;BME280;33524;55.434;38.520;2023-05-02T12:21:54;100935.25;;;21.66;23.44
47761;BME280;33524;55.434;38.520;2023-05-02T12:24:23;100927.06;;;21.59;24.59
47761;BME280;33524;55.434;38.520;2023-05-02T12:27:14;100929.59;;;21.61;24.84
47761;BME280;33524;55.434;38.520;2023-05-02T12:29:44;100929.88;;;22.30;24.21
47761;BME280;33524;55.434;38.520;2023-05-02T12:32:13;100928.94;;;21.50;21.89
47761;BME280;33524;55.434;38.520;2023-05-02T12:34:42;100930.94;;;21.65;24.22
47761;BME280;33524;55.434;38.520;2023-05-02T12:37:10;100930.25;;;22.19;24.63
47761;BME280;33524;55.434;38.520;2023-05-02T12:39:40;100929.72;;;22.31;23.24
47761;BME280;33524;55.434;38.520;2023-05-02T12:42:10;100922.09;;;22.74;22.20
47761;BME280;33524;55.434;38.520;2023-05-02T12:44:43;100921.72;;;23.01;20.36
47761;BME280;33524;55.434;38.520;2023-05-02T12:47:14;100922.25;;;22.50;21.27
47761;BME280;33524;55.434;38.520;2023-05-02T12:49:54;100920.12;;;21.98;20.94
47761;BME280;33524;55.434;38.520;2023-05-02T12:52:46;100920.16;;;22.60;21.59
47761;BME280;33524;55.434;38.520;2023-05-02T12:55:16;100909.50;;;22.98;20.34
47761;BME280;33524;55.434;38.520;2023-05-02T12:57:47;100915.34;;;23.25;19.86
47761;BME280;33524;55.434;38.520;2023-05-02T13:00:18;100908.28;;;24.06;21.31
47761;BME280;33524;55.434;38.520;2023-05-02T13:02:46;100915.41;;;24.65;20.29
47761;BME280;33524;55.434;38.520;2023-05-02T13:05:18;100909.34;;;24.42;19.45
47761;BME280;33524;55.434;38.520;2023-05-02T13:07:50;100909.78;;;23.94;19.91
47761;BME280;33524;55.434;38.520;2023-05-02T13:10:25;100902.66;;;24.37;19.91
47761;BME280;33524;55.434;38.520;2023-05-02T13:12:55;100911.31;;;24.69;19.68
47761;BME280;33524;55.434;38.520;2023-05-02T13:15:26;100904.31;;;24.75;19.04
47761;BME280;33524;55.434;38.520;2023-05-02T13:17:55;100894.63;;;25.24;18.95
47761;BME280;33524;55.434;38.520;2023-05-02T13:20:40;100900.94;;;26.01;18.61
47761;BME280;33524;55.434;38.520;2023-05-02T13:23:13;100897.81;;;26.04;17.50
47761;BME280;33524;55.434;38.520;2023-05-02T13:25:43;100900.28;;;25.64;19.52
47761;BME280;33524;55.434;38.520;2023-05-02T13:28:13;100904.81;;;25.28;17.87
47761;BME280;33524;55.434;38.520;2023-05-02T13:30:42;100904.03;;;24.85;17.72
47761;BME280;33524;55.434;38.520;2023-05-02T13:33:10;100899.56;;;24.55;18.23
47761;BME280;33524;55.434;38.520;2023-05-02T13:35:47;100902.88;;;24.21;18.17
47761;BME280;33524;55.434;38.520;2023-05-02T13:38:16;100912.72;;;24.65;18.71
47761;BME280;33524;55.434;38.520;2023-05-02T13:40:44;100905.06;;;25.12;18.46